createdAt,value
2023-01-05T00:01:38.985Z,0.20
2023-01-05T00:04:06.803Z,0.20
2023-01-05T00:06:34.652Z,0.32
2023-01-05T00:09:01.558Z,0.20
2023-01-05T00:11:46.998Z,0.30
2023-01-05T00:14:44.563Z,0.20
2023-01-05T00:17:31.366Z,0.10
2023-01-05T00:20:17.346Z,0.20
2023-01-05T00:22:49.954Z,0.17
2023-01-05T00:25:19.425Z,0.30
2023-01-05T00:27:51.698Z,0.17
2023-01-05T00:30:25.258Z,0.20
2023-01-05T00:32:52.186Z,0.20
2023-01-05T00:35:19.215Z,0.20
2023-01-05T00:37:45.933Z,0.10
2023-01-05T00:40:15.009Z,0.20
2023-01-05T00:42:42.112Z,0.20
2023-01-05T00:45:11.624Z,0.05
2023-01-05T00:47:38.397Z,0.10
2023-01-05T00:50:05.950Z,0.10
2023-01-05T00:52:32.737Z,0.20
2023-01-05T00:54:59.495Z,0.17
2023-01-05T00:57:26.388Z,0.10
2023-01-05T00:59:53.116Z,0.10
2023-01-05T01:02:20.109Z,0.10
2023-01-05T01:04:46.959Z,0.03
2023-01-05T01:07:13.720Z,0.10
2023-01-05T01:09:41.420Z,0.10
2023-01-05T01:12:08.191Z,0.20
2023-01-05T01:14:36.434Z,0.10
2023-01-05T01:17:03.244Z,0.20
2023-01-05T01:19:30.101Z,0.10
2023-01-05T01:21:56.811Z,0.20
2023-01-05T01:24:26.057Z,0.43
2023-01-05T01:26:53.839Z,0.20
2023-01-05T01:29:21.614Z,0.10
2023-01-05T01:31:49.627Z,0.10
2023-01-05T01:34:16.572Z,0.10
2023-01-05T01:36:43.843Z,0.35
2023-01-05T01:39:11.551Z,0.10
2023-01-05T01:41:38.608Z,0.10
2023-01-05T01:44:43.377Z,0.10
2023-01-05T01:47:14.240Z,0.15
2023-01-05T01:49:41.435Z,0.10
2023-01-05T01:52:08.307Z,0.10
2023-01-05T01:54:35.191Z,0.10
2023-01-05T01:57:02.060Z,0.10
2023-01-05T01:59:29.012Z,0.22
2023-01-05T02:01:58.832Z,0.20
2023-01-05T02:04:26.413Z,0.10
2023-01-05T02:06:53.462Z,0.10
2023-01-05T02:09:20.358Z,0.20
2023-01-05T02:12:09.202Z,0.15
2023-01-05T02:14:47.864Z,0.10
2023-01-05T02:17:27.891Z,0.10
2023-01-05T02:20:24.215Z,0.17
2023-01-05T02:23:04.626Z,0.20
2023-01-05T02:25:43.514Z,0.10
2023-01-05T02:28:34.389Z,0.10
2023-01-05T02:31:49.078Z,0.20
2023-01-05T02:34:33.596Z,0.00
2023-01-05T02:37:01.770Z,0.00
2023-01-05T02:39:59.220Z,0.10
2023-01-05T02:42:27.694Z,0.10
2023-01-05T02:44:54.458Z,0.10
2023-01-05T02:47:28.026Z,0.10
2023-01-05T02:49:59.523Z,0.15
2023-01-05T02:52:27.059Z,0.10
2023-01-05T02:54:58.163Z,0.05
2023-01-05T02:57:50.621Z,0.10
2023-01-05T03:00:22.813Z,0.00
2023-01-05T03:02:53.083Z,0.05
2023-01-05T03:05:28.905Z,0.10
2023-01-05T03:08:06.929Z,0.10
2023-01-05T03:11:04.408Z,0.10
2023-01-05T03:13:43.862Z,0.10
2023-01-05T03:16:13.724Z,0.10
2023-01-05T03:18:59.675Z,0.10
2023-01-05T03:21:27.565Z,0.10
2023-01-05T03:24:14.530Z,0.10
2023-01-05T03:27:00.134Z,0.10
2023-01-05T03:29:46.557Z,0.13
2023-01-05T03:32:35.111Z,0.10
2023-01-05T03:35:34.207Z,0.10
2023-01-05T03:38:23.695Z,0.10
2023-01-05T03:40:52.525Z,0.10
2023-01-05T03:43:19.549Z,0.03
2023-01-05T03:45:55.078Z,0.10
2023-01-05T03:48:22.565Z,0.20
2023-01-05T03:50:49.242Z,0.20
2023-01-05T03:53:15.970Z,0.10
2023-01-05T03:55:42.658Z,0.10
2023-01-05T03:58:09.331Z,0.10
2023-01-05T04:00:36.499Z,0.10
2023-01-05T04:03:03.443Z,0.10
2023-01-05T04:05:30.306Z,0.10
2023-01-05T04:07:56.964Z,0.15
2023-01-05T04:10:23.659Z,0.20
2023-01-05T04:12:50.385Z,0.10
2023-01-05T04:15:17.067Z,0.10
2023-01-05T04:17:43.761Z,0.10
2023-01-05T04:20:11.078Z,0.10
2023-01-05T04:22:37.784Z,0.10
2023-01-05T04:25:04.809Z,0.10
2023-01-05T04:27:31.775Z,0.10
2023-01-05T04:29:58.759Z,0.10
2023-01-05T04:32:25.471Z,0.10
2023-01-05T04:34:52.312Z,0.00
2023-01-05T04:37:18.987Z,0.10
2023-01-05T04:39:46.042Z,0.10
2023-01-05T04:42:12.719Z,0.10
2023-01-05T04:44:39.403Z,0.40
2023-01-05T04:47:06.127Z,0.10
2023-01-05T04:49:32.769Z,0.10
2023-01-05T04:51:59.467Z,0.10
2023-01-05T04:54:26.310Z,0.10
2023-01-05T04:56:53.173Z,0.10
2023-01-05T04:59:19.997Z,0.10
2023-01-05T05:01:46.767Z,0.13
2023-01-05T05:04:13.521Z,0.10
2023-01-05T05:06:40.615Z,0.00
2023-01-05T05:09:07.321Z,0.10
2023-01-05T05:11:34.011Z,0.10
2023-01-05T05:14:00.702Z,0.03
2023-01-05T05:16:27.448Z,0.20
2023-01-05T05:18:54.353Z,0.10
2023-01-05T05:21:21.052Z,0.10
2023-01-05T05:23:47.750Z,0.03
2023-01-05T05:26:14.405Z,0.10
2023-01-05T05:28:41.063Z,0.10
2023-01-05T05:31:07.874Z,0.10
2023-01-05T05:33:34.693Z,0.00
2023-01-05T05:36:01.342Z,0.20
2023-01-05T05:38:28.057Z,0.10
2023-01-05T05:40:54.735Z,0.10
2023-01-05T05:43:21.443Z,0.22
2023-01-05T05:45:50.589Z,0.52
2023-01-05T05:48:18.542Z,0.10
2023-01-05T05:50:45.864Z,0.10
2023-01-05T05:53:12.545Z,0.20
2023-01-05T05:55:39.285Z,0.10
2023-01-05T05:58:06.166Z,0.15
2023-01-05T06:00:32.843Z,0.30
2023-01-05T06:02:59.656Z,0.90
2023-01-05T06:05:26.430Z,1.10
2023-01-05T06:07:53.121Z,1.60
2023-01-05T06:10:19.759Z,2.20
2023-01-05T06:12:46.571Z,2.88
2023-01-05T06:15:13.310Z,3.58
2023-01-05T06:17:40.119Z,3.25
2023-01-05T06:20:08.348Z,3.42
2023-01-05T06:22:35.005Z,3.38
2023-01-05T06:25:01.682Z,3.05
2023-01-05T06:27:28.343Z,2.80
2023-01-05T06:29:54.996Z,3.25
2023-01-05T06:32:21.696Z,3.40
2023-01-05T06:34:48.374Z,3.67
2023-01-05T06:37:15.134Z,2.80
2023-01-05T06:39:41.871Z,2.67
2023-01-05T06:42:08.617Z,2.90
2023-01-05T06:44:35.292Z,2.92
2023-01-05T06:47:02.117Z,2.80
2023-01-05T06:49:28.886Z,3.22
2023-01-05T06:51:55.589Z,2.42
2023-01-05T06:54:22.300Z,3.03
2023-01-05T06:56:48.966Z,2.78
2023-01-05T06:59:15.716Z,2.17
2023-01-05T07:01:42.477Z,2.38
2023-01-05T07:04:09.312Z,2.45
2023-01-05T07:06:36.323Z,2.55
2023-01-05T07:09:03.564Z,2.30
2023-01-05T07:11:30.493Z,2.40
2023-01-05T07:13:57.187Z,2.75
2023-01-05T07:16:23.887Z,2.13
2023-01-05T07:18:50.630Z,2.13
2023-01-05T07:21:17.310Z,2.25
2023-01-05T07:23:44.071Z,2.40
2023-01-05T07:26:10.885Z,2.08
2023-01-05T07:28:38.375Z,1.95
2023-01-05T07:31:07.492Z,2.35
2023-01-05T07:33:39.672Z,2.55
2023-01-05T07:36:07.735Z,2.40
2023-01-05T07:38:34.650Z,2.60
2023-01-05T07:41:02.314Z,2.40
2023-01-05T07:43:29.330Z,2.38
2023-01-05T07:46:04.713Z,2.50
2023-01-05T07:48:31.410Z,2.63
2023-01-05T07:51:02.635Z,2.92
2023-01-05T07:53:30.747Z,2.80
2023-01-05T07:56:01.566Z,2.88
2023-01-05T07:58:29.051Z,2.42
2023-01-05T08:00:56.464Z,2.58
2023-01-05T08:03:23.731Z,2.15
2023-01-05T08:05:50.448Z,1.83
2023-01-05T08:08:23.958Z,2.40
2023-01-05T08:10:50.823Z,1.75
2023-01-05T08:13:36.100Z,1.83
2023-01-05T08:16:02.974Z,1.80
2023-01-05T08:18:29.764Z,1.73
2023-01-05T08:20:58.232Z,1.90
2023-01-05T08:23:27.535Z,2.00
2023-01-05T08:25:54.856Z,1.90
2023-01-05T08:28:21.841Z,4.80
2023-01-05T08:30:48.516Z,2.13
2023-01-05T08:33:15.179Z,2.67
2023-01-05T08:35:43.624Z,2.45
2023-01-05T08:38:10.932Z,1.98
2023-01-05T08:40:38.393Z,2.03
2023-01-05T08:43:05.988Z,1.75
2023-01-05T08:45:33.182Z,2.15
2023-01-05T08:48:01.108Z,1.77
2023-01-05T08:50:27.771Z,1.65
2023-01-05T08:52:54.445Z,2.00
2023-01-05T08:55:21.117Z,2.20
2023-01-05T08:57:47.793Z,2.72
2023-01-05T09:00:17.232Z,2.00
2023-01-05T09:02:44.667Z,2.05
2023-01-05T09:05:11.630Z,2.13
2023-01-05T09:07:38.427Z,2.17
2023-01-05T09:10:06.948Z,2.63
2023-01-05T09:12:37.201Z,2.67
2023-01-05T09:15:05.243Z,2.22
2023-01-05T09:17:32.836Z,2.15
2023-01-05T09:19:59.928Z,1.80
2023-01-05T09:22:26.776Z,2.53
2023-01-05T09:24:53.533Z,2.22
2023-01-05T09:27:20.207Z,2.30
2023-01-05T09:29:47.020Z,2.75
2023-01-05T09:32:13.774Z,2.22
2023-01-05T09:34:40.447Z,2.20
2023-01-05T09:37:07.120Z,2.38
2023-01-05T09:39:33.926Z,2.80
2023-01-05T09:42:03.459Z,2.30
2023-01-05T09:44:37.269Z,2.22
2023-01-05T09:47:23.155Z,2.33
2023-01-05T09:49:50.661Z,2.80
2023-01-05T09:52:20.081Z,1.92
2023-01-05T09:54:46.770Z,2.47
2023-01-05T09:57:18.152Z,2.58
2023-01-05T09:59:48.311Z,2.33
2023-01-05T10:02:25.198Z,2.50
2023-01-05T10:04:52.475Z,3.03
2023-01-05T10:07:40.946Z,2.47
2023-01-05T10:10:30.822Z,2.80
2023-01-05T10:13:03.011Z,2.88
2023-01-05T10:15:45.142Z,2.20
2023-01-05T10:18:17.856Z,2.13
2023-01-05T10:20:50.486Z,2.17
2023-01-05T10:23:50.579Z,2.33
2023-01-05T10:26:50.952Z,2.42
2023-01-05T10:29:41.551Z,2.50
2023-01-05T10:32:27.840Z,2.25
2023-01-05T10:34:59.872Z,2.47
2023-01-05T10:37:51.766Z,2.17
2023-01-05T10:40:50.647Z,2.50
2023-01-05T10:43:49.682Z,2.30
2023-01-05T10:46:33.536Z,2.75
2023-01-05T10:49:02.082Z,2.22
2023-01-05T10:51:33.415Z,2.85
2023-01-05T10:54:00.688Z,2.90
2023-01-05T10:56:29.499Z,2.50
2023-01-05T10:59:15.262Z,2.28
2023-01-05T11:01:47.677Z,1.98
2023-01-05T11:04:34.252Z,2.38
2023-01-05T11:07:06.305Z,2.33
2023-01-05T11:09:33.917Z,3.05
2023-01-05T11:12:03.020Z,2.15
2023-01-05T11:14:42.051Z,3.20
2023-01-05T11:17:16.852Z,2.53
2023-01-05T11:19:49.606Z,2.38
2023-01-05T11:22:29.074Z,3.05
2023-01-05T11:25:28.026Z,2.70
2023-01-05T11:28:11.577Z,2.33
2023-01-05T11:31:04.457Z,2.70
2023-01-05T11:33:34.675Z,1.95
2023-01-05T11:36:01.465Z,2.40
2023-01-05T11:38:30.338Z,2.60
2023-01-05T11:40:58.443Z,2.97
2023-01-05T11:43:27.907Z,2.63
2023-01-05T11:45:57.966Z,2.45
2023-01-05T11:48:27.740Z,2.75
2023-01-05T11:50:57.036Z,2.45
2023-01-05T11:53:33.087Z,2.35
2023-01-05T11:56:21.898Z,2.88
2023-01-05T11:58:54.768Z,3.05
2023-01-05T12:01:54.997Z,2.92
2023-01-05T12:04:21.712Z,2.42
2023-01-05T12:07:26.010Z,2.67
2023-01-05T12:10:25.494Z,3.33
2023-01-05T12:13:01.157Z,3.00
2023-01-05T12:15:48.699Z,3.13
2023-01-05T12:18:39.992Z,3.00
2023-01-05T12:21:26.117Z,2.72
2023-01-05T12:24:24.251Z,3.45
2023-01-05T12:27:01.230Z,3.10
2023-01-05T12:35:38.520Z,2.88
2023-01-05T12:38:29.124Z,4.03
2023-01-05T12:40:55.784Z,3.05
2023-01-05T12:43:43.367Z,3.60
2023-01-05T12:46:33.480Z,3.50
2023-01-05T12:49:03.468Z,3.30
2023-01-05T12:51:46.327Z,3.67
2023-01-05T12:54:39.346Z,3.03
2023-01-05T12:57:10.565Z,3.28
2023-01-05T12:59:48.860Z,2.78
2023-01-05T13:02:21.068Z,2.92
2023-01-05T13:05:19.894Z,3.00
2023-01-05T13:07:54.983Z,4.60
2023-01-05T13:10:26.408Z,5.07
2023-01-05T13:12:57.516Z,3.30
2023-01-05T13:15:31.082Z,4.30
2023-01-05T13:17:59.302Z,4.60
2023-01-05T13:20:46.382Z,3.70
2023-01-05T13:23:42.359Z,4.00
2023-01-05T13:26:15.934Z,3.60
2023-01-05T13:28:43.123Z,3.65
2023-01-05T13:31:21.048Z,3.78
2023-01-05T13:33:59.363Z,4.68
2023-01-05T13:36:44.865Z,3.58
2023-01-05T13:39:57.339Z,3.95
2023-01-05T13:42:24.184Z,3.88
2023-01-05T13:44:56.885Z,3.42
2023-01-05T13:47:28.089Z,2.75
2023-01-05T13:50:10.428Z,3.40
2023-01-05T13:53:01.188Z,2.78
2023-01-05T13:55:28.707Z,3.10
2023-01-05T13:57:55.736Z,3.00
2023-01-05T14:00:34.800Z,2.60
2023-01-05T14:03:14.195Z,2.33
2023-01-05T14:05:53.632Z,2.92
2023-01-05T14:08:29.356Z,3.15
2023-01-05T14:11:12.838Z,3.20
2023-01-05T14:13:46.089Z,2.75
2023-01-05T14:16:35.223Z,2.08
2023-01-05T14:19:25.036Z,2.65
2023-01-05T14:21:53.927Z,3.28
2023-01-05T14:24:28.415Z,2.55
2023-01-05T14:27:02.559Z,2.75
2023-01-05T14:29:44.704Z,2.83
2023-01-05T14:32:13.835Z,2.20
2023-01-05T14:35:09.389Z,2.40
2023-01-05T14:37:37.930Z,1.95
2023-01-05T14:40:32.497Z,2.70
2023-01-05T14:43:01.320Z,2.65
2023-01-05T14:45:34.819Z,3.10
2023-01-05T14:48:07.340Z,2.90
2023-01-05T14:50:42.000Z,2.97
2023-01-05T14:53:42.552Z,2.80
2023-01-05T14:56:09.183Z,2.35
2023-01-05T14:58:35.954Z,2.92
2023-01-05T15:01:16.675Z,2.63
2023-01-05T15:04:12.817Z,3.22
2023-01-05T15:07:20.973Z,3.33
2023-01-05T15:10:16.702Z,2.50
2023-01-05T15:12:50.851Z,2.60
2023-01-05T15:15:43.727Z,2.53
2023-01-05T15:18:42.870Z,2.50
2023-01-05T15:21:34.429Z,2.33
2023-01-05T15:24:43.006Z,2.35
2023-01-05T15:27:34.388Z,2.47
2023-01-05T15:30:21.604Z,3.10
2023-01-05T15:32:54.685Z,2.80
2023-01-05T15:35:42.132Z,3.35
2023-01-05T15:38:21.004Z,2.55
2023-01-05T15:40:48.288Z,2.97
2023-01-05T15:43:16.458Z,2.33
2023-01-05T15:45:50.139Z,2.88
2023-01-05T15:48:25.451Z,2.53
2023-01-05T15:50:54.043Z,2.28
2023-01-05T15:53:38.034Z,2.58
2023-01-05T15:56:07.427Z,3.05
2023-01-05T15:58:44.295Z,2.22
2023-01-05T16:01:13.292Z,2.67
2023-01-05T16:03:42.421Z,2.58
2023-01-05T16:06:10.751Z,2.50
2023-01-05T16:08:43.477Z,2.10
2023-01-05T16:11:13.051Z,2.50
2023-01-05T16:13:44.311Z,2.90
2023-01-05T16:16:51.122Z,3.25
2023-01-05T16:19:35.743Z,2.70
2023-01-05T16:22:10.137Z,2.78
2023-01-05T16:24:42.785Z,2.55
2023-01-05T16:27:12.093Z,2.60
2023-01-05T16:29:40.489Z,3.22
2023-01-05T16:32:37.688Z,2.80
2023-01-05T16:35:29.061Z,3.00
2023-01-05T16:38:11.029Z,3.13
2023-01-05T16:40:46.887Z,3.03
2023-01-05T16:43:50.058Z,3.13
2023-01-05T16:46:19.043Z,2.50
2023-01-05T16:48:47.582Z,2.22
2023-01-05T16:51:16.680Z,2.83
2023-01-05T16:53:46.524Z,2.53
2023-01-05T16:56:26.017Z,2.78
2023-01-05T16:58:52.748Z,3.40
2023-01-05T17:01:34.509Z,2.65
2023-01-05T17:04:11.435Z,2.40
2023-01-05T17:06:38.403Z,2.50
2023-01-05T17:09:13.533Z,3.13
2023-01-05T17:11:40.464Z,3.28
2023-01-05T17:14:07.402Z,3.67
2023-01-05T17:16:34.191Z,3.08
2023-01-05T17:19:02.350Z,3.00
2023-01-05T17:21:31.834Z,2.95
2023-01-05T17:23:59.706Z,2.38
2023-01-05T17:26:37.065Z,2.45
2023-01-05T17:29:05.139Z,2.78
2023-01-05T17:31:31.874Z,3.05
2023-01-05T17:33:58.548Z,2.00
2023-01-05T17:36:31.074Z,2.42
2023-01-05T17:38:58.725Z,2.35
2023-01-05T17:41:26.078Z,2.15
2023-01-05T17:43:52.807Z,1.95
2023-01-05T17:46:28.920Z,2.08
2023-01-05T17:48:58.681Z,1.75
2023-01-05T17:51:28.075Z,1.90
2023-01-05T17:53:56.004Z,2.28
2023-01-05T17:56:22.956Z,2.15
2023-01-05T17:58:49.724Z,2.50
2023-01-05T18:01:16.477Z,1.88
2023-01-05T18:03:43.205Z,2.03
2023-01-05T18:06:09.960Z,1.73
2023-01-05T18:08:37.475Z,2.58
2023-01-05T18:11:05.359Z,1.75
2023-01-05T18:13:33.176Z,2.10
2023-01-05T18:15:59.908Z,1.70
2023-01-05T18:18:28.187Z,1.60
2023-01-05T18:20:59.803Z,1.58
2023-01-05T18:23:26.680Z,1.38
2023-01-05T18:25:53.393Z,1.80
2023-01-05T18:28:20.034Z,1.80
2023-01-05T18:30:46.733Z,1.60
2023-01-05T18:33:13.540Z,1.95
2023-01-05T18:35:43.614Z,2.00
2023-01-05T18:38:10.737Z,1.55
2023-01-05T18:40:37.555Z,2.00
2023-01-05T18:43:04.296Z,1.35
2023-01-05T18:45:40.527Z,1.35
2023-01-05T18:48:07.327Z,2.00
2023-01-05T18:50:34.082Z,1.60
2023-01-05T18:53:00.748Z,1.40
2023-01-05T18:55:27.450Z,1.00
2023-01-05T18:57:54.136Z,1.08
2023-01-05T19:00:21.014Z,1.70
2023-01-05T19:02:48.413Z,1.73
2023-01-05T19:05:15.148Z,1.65
2023-01-05T19:07:42.193Z,1.25
2023-01-05T19:10:09.091Z,1.60
2023-01-05T19:12:36.194Z,1.92
2023-01-05T19:15:02.940Z,1.80
2023-01-05T19:17:33.755Z,1.48
2023-01-05T19:20:00.465Z,1.70
2023-01-05T19:22:27.225Z,1.35
2023-01-05T19:24:53.896Z,1.15
2023-01-05T19:27:21.692Z,1.08
2023-01-05T19:29:48.377Z,1.02
2023-01-05T19:32:15.030Z,2.70
2023-01-05T19:34:41.881Z,1.15
2023-01-05T19:37:08.736Z,1.00
2023-01-05T19:39:35.415Z,1.17
2023-01-05T19:42:02.269Z,1.40
2023-01-05T19:44:29.114Z,1.30
2023-01-05T19:46:55.929Z,1.20
2023-01-05T19:49:25.007Z,1.38
2023-01-05T19:51:52.150Z,1.30
2023-01-05T19:54:19.738Z,1.10
2023-01-05T19:56:47.535Z,1.00
2023-01-05T19:59:32.906Z,1.05
2023-01-05T20:02:01.690Z,0.88
2023-01-05T20:04:29.436Z,1.00
2023-01-05T20:06:56.695Z,1.20
2023-01-05T20:09:24.097Z,0.73
2023-01-05T20:11:59.283Z,0.77
2023-01-05T20:14:31.245Z,0.77
2023-01-05T20:17:00.199Z,0.93
2023-01-05T20:19:29.478Z,0.63
2023-01-05T20:21:57.829Z,0.73
2023-01-05T20:24:27.722Z,0.70
2023-01-05T20:27:01.489Z,0.65
2023-01-05T20:29:30.395Z,0.88
2023-01-05T20:32:01.766Z,1.05
2023-01-05T20:34:32.140Z,0.90
2023-01-05T20:37:00.088Z,0.50
2023-01-05T20:39:26.810Z,0.80
2023-01-05T20:41:54.251Z,0.98
2023-01-05T20:44:23.612Z,0.68
2023-01-05T20:46:51.795Z,0.82
2023-01-05T20:49:19.045Z,0.60
2023-01-05T20:51:46.265Z,0.68
2023-01-05T20:54:13.021Z,0.50
2023-01-05T20:56:43.556Z,0.50
2023-01-05T20:59:15.796Z,0.55
2023-01-05T21:01:44.983Z,0.52
2023-01-05T21:04:12.189Z,0.70
2023-01-05T21:06:39.128Z,1.10
2023-01-05T21:09:06.963Z,1.02
2023-01-05T21:11:34.263Z,0.70
2023-01-05T21:14:02.658Z,1.00
2023-01-05T21:16:44.357Z,0.82
2023-01-05T21:19:17.733Z,1.08
2023-01-05T21:21:45.976Z,0.98
2023-01-05T21:24:13.438Z,1.00
2023-01-05T21:26:40.112Z,1.05
2023-01-05T21:29:08.149Z,1.02
2023-01-05T21:31:37.033Z,0.85
2023-01-05T21:34:04.142Z,0.90
2023-01-05T21:36:33.010Z,0.90
2023-01-05T21:39:07.154Z,0.98
2023-01-05T21:41:54.131Z,1.02
2023-01-05T21:44:21.507Z,1.23
2023-01-05T21:46:48.899Z,1.13
2023-01-05T21:49:15.892Z,1.35
2023-01-05T21:52:01.488Z,1.13
2023-01-05T21:54:47.065Z,1.17
2023-01-05T21:57:14.032Z,0.80
2023-01-05T21:59:41.067Z,0.68
2023-01-05T22:02:07.929Z,0.90
2023-01-05T22:04:34.582Z,1.20
2023-01-05T22:07:01.468Z,1.05
2023-01-05T22:09:28.221Z,0.88
2023-01-05T22:11:54.936Z,0.85
2023-01-05T22:14:21.606Z,0.80
2023-01-05T22:16:48.418Z,0.90
2023-01-05T22:19:15.097Z,0.77
2023-01-05T22:21:42.050Z,1.00
2023-01-05T22:24:09.442Z,1.02
2023-01-05T22:26:36.207Z,0.82
2023-01-05T22:29:02.928Z,0.90
2023-01-05T22:31:30.710Z,1.15
2023-01-05T22:33:58.743Z,1.10
2023-01-05T22:36:27.097Z,0.85
2023-01-05T22:38:54.877Z,0.80
2023-01-05T22:41:24.943Z,0.90
2023-01-05T22:43:52.157Z,1.00
2023-01-05T22:46:20.812Z,0.90
2023-01-05T22:48:50.612Z,0.90
2023-01-05T22:51:20.087Z,0.90
2023-01-05T22:53:47.426Z,0.95
2023-01-05T22:56:15.646Z,1.20
2023-01-05T22:58:42.731Z,0.90
2023-01-05T23:01:12.506Z,0.80
2023-01-05T23:03:39.764Z,0.65
2023-01-05T23:06:07.175Z,1.10
2023-01-05T23:08:35.188Z,1.00
2023-01-05T23:11:04.169Z,0.98
2023-01-05T23:13:30.927Z,0.70
2023-01-05T23:15:58.192Z,0.63
2023-01-05T23:18:25.213Z,0.50
2023-01-05T23:20:56.572Z,0.85
2023-01-05T23:23:24.141Z,0.60
2023-01-05T23:25:51.857Z,0.60
2023-01-05T23:28:20.349Z,1.15
2023-01-05T23:30:48.900Z,1.00
2023-01-05T23:33:16.700Z,0.80
2023-01-05T23:35:44.071Z,0.77
2023-01-05T23:38:11.265Z,0.70
2023-01-05T23:40:46.525Z,0.70
2023-01-05T23:43:15.255Z,0.57
2023-01-05T23:45:43.196Z,0.70
2023-01-05T23:48:10.813Z,0.60
2023-01-05T23:50:40.656Z,0.70
2023-01-05T23:53:07.331Z,0.80
2023-01-05T23:55:33.985Z,0.60
2023-01-05T23:58:00.782Z,0.82
